N6529L PASC-PAQT

Flight info

Callsign N6529L
Flight time 0h 36m
Altitude 2000
Route SCC T235 ZADRO
Aircraft PA24/L-VGD/C

Departure

Time 2026-04-19 19:08
Airport Deadhorse Airport (PASC)

Arrival

Time 2026-04-19 19:44
Airport Nuiqsut Airport (PAQT)
Time Latitude Longitude Altitude Speed Heading
2026-04-19 18:50 70.19824 -148.46226 67 ft 0 kts 24°
2026-04-19 18:59 70.19827 -148.46214 67 ft 4 kts 75°
2026-04-19 19:00 70.19804 -148.46190 67 ft 0 kts 179°
2026-04-19 19:00 70.19793 -148.46189 65 ft 5 kts 179°
2026-04-19 19:00 70.19757 -148.46213 66 ft 4 kts 233°
2026-04-19 19:01 70.19746 -148.46321 67 ft 10 kts 255°
2026-04-19 19:01 70.19732 -148.46473 67 ft 11 kts 255°
2026-04-19 19:01 70.19709 -148.46758 67 ft 13 kts 258°
2026-04-19 19:01 70.19685 -148.46984 63 ft 10 kts 211°
2026-04-19 19:02 70.19647 -148.47017 65 ft 1 kts 181°
2026-04-19 19:02 70.19643 -148.47014 67 ft 0 kts 158°
2026-04-19 19:03 70.19639 -148.46998 59 ft 4 kts 91°
2026-04-19 19:03 70.19675 -148.46974 66 ft 8 kts 38°
2026-04-19 19:03 70.19707 -148.46802 67 ft 12 kts 75°
2026-04-19 19:04 70.19728 -148.46513 66 ft 17 kts 81°
2026-04-19 19:04 70.19753 -148.46144 66 ft 20 kts 75°
2026-04-19 19:04 70.19791 -148.45729 67 ft 22 kts 75°
2026-04-19 19:04 70.19833 -148.45261 64 ft 24 kts 76°
2026-04-19 19:05 70.19855 -148.45007 67 ft 3 kts 68°
2026-04-19 19:05 70.19904 -148.44919 64 ft 11 kts 39°
2026-04-19 19:05 70.19955 -148.44683 67 ft 16 kts 69°
2026-04-19 19:05 70.19943 -148.44489 63 ft 12 kts 164°
2026-04-19 19:06 70.19907 -148.44469 67 ft 0 kts 165°
2026-04-19 19:07 70.19896 -148.44460 63 ft 6 kts 163°
2026-04-19 19:07 70.19836 -148.44433 65 ft 9 kts 234°
2026-04-19 19:07 70.19767 -148.45176 66 ft 76 kts 253°
2026-04-19 19:08 70.19599 -148.46975 192 ft 102 kts 256°
2026-04-19 19:08 70.19388 -148.49053 501 ft 107 kts 254°
2026-04-19 19:08 70.19182 -148.51029 971 ft 101 kts 254°
2026-04-19 19:08 70.18955 -148.53112 1148 ft 114 kts 243°
2026-04-19 19:09 70.18338 -148.54753 1262 ft 124 kts 202°
2026-04-19 19:09 70.17507 -148.55004 1369 ft 127 kts 182°
2026-04-19 19:09 70.16690 -148.56268 1249 ft 138 kts 231°
2026-04-19 19:09 70.16457 -148.58748 1501 ft 127 kts 276°
2026-04-19 19:10 70.16778 -148.61220 1535 ft 131 kts 303°
2026-04-19 19:10 70.17359 -148.63282 1605 ft 132 kts 313°
2026-04-19 19:10 70.17974 -148.65281 1694 ft 131 kts 313°
2026-04-19 19:10 70.18588 -148.67269 1766 ft 132 kts 310°
2026-04-19 19:11 70.18907 -148.69861 1677 ft 141 kts 273°
2026-04-19 19:11 70.18913 -148.72755 1627 ft 145 kts 270°
2026-04-19 19:11 70.18908 -148.75658 1738 ft 138 kts 270°
2026-04-19 19:11 70.18898 -148.78535 1706 ft 143 kts 270°
2026-04-19 19:12 70.18901 -148.81465 1744 ft 140 kts 271°
2026-04-19 19:12 70.18924 -148.84323 1785 ft 140 kts 272°
2026-04-19 19:12 70.18970 -148.87169 1857 ft 137 kts 274°
2026-04-19 19:12 70.19034 -148.89998 1844 ft 139 kts 275°
2026-04-19 19:13 70.19115 -148.92820 1857 ft 139 kts 276°
2026-04-19 19:13 70.19209 -148.95650 1896 ft 139 kts 276°
2026-04-19 19:13 70.19308 -148.98490 1907 ft 139 kts 276°
2026-04-19 19:13 70.19409 -149.01336 1916 ft 140 kts 276°
2026-04-19 19:14 70.19508 -149.04193 1902 ft 142 kts 276°
2026-04-19 19:14 70.19597 -149.07076 1943 ft 140 kts 275°
2026-04-19 19:14 70.19674 -149.09964 1937 ft 142 kts 275°
2026-04-19 19:14 70.19744 -149.12858 1979 ft 141 kts 274°
2026-04-19 19:15 70.19805 -149.15718 1974 ft 141 kts 274°
2026-04-19 19:15 70.19864 -149.18624 1985 ft 141 kts 274°
2026-04-19 19:15 70.19919 -149.21531 1984 ft 142 kts 274°
2026-04-19 19:15 70.19974 -149.24437 1987 ft 142 kts 274°
2026-04-19 19:16 70.20031 -149.27349 1979 ft 142 kts 274°
2026-04-19 19:16 70.20091 -149.30270 1986 ft 143 kts 274°
2026-04-19 19:16 70.20152 -149.33157 1981 ft 142 kts 274°
2026-04-19 19:16 70.20218 -149.36073 1974 ft 142 kts 274°
2026-04-19 19:17 70.20287 -149.38993 1975 ft 143 kts 274°
2026-04-19 19:17 70.20357 -149.41886 1978 ft 143 kts 275°
2026-04-19 19:17 70.20426 -149.44809 1980 ft 142 kts 274°
2026-04-19 19:17 70.20493 -149.47730 1981 ft 143 kts 274°
2026-04-19 19:18 70.20559 -149.50656 1972 ft 143 kts 274°
2026-04-19 19:18 70.20624 -149.53576 1978 ft 142 kts 274°
2026-04-19 19:18 70.20687 -149.56458 1977 ft 143 kts 274°
2026-04-19 19:18 70.20750 -149.59389 1976 ft 143 kts 274°
2026-04-19 19:19 70.20811 -149.62310 1975 ft 143 kts 274°
2026-04-19 19:19 70.20871 -149.65233 1975 ft 143 kts 274°
2026-04-19 19:19 70.20931 -149.68162 1980 ft 143 kts 274°
2026-04-19 19:20 70.21051 -149.73982 1974 ft 143 kts 274°
2026-04-19 19:20 70.21111 -149.76912 1974 ft 143 kts 274°
2026-04-19 19:20 70.21171 -149.79839 1980 ft 143 kts 274°
2026-04-19 19:20 70.21232 -149.82765 1977 ft 143 kts 274°
2026-04-19 19:21 70.21291 -149.85695 1974 ft 143 kts 274°
2026-04-19 19:21 70.21349 -149.88634 1978 ft 143 kts 274°
2026-04-19 19:21 70.21406 -149.91568 1982 ft 143 kts 274°
2026-04-19 19:21 70.21462 -149.94500 1977 ft 143 kts 274°
2026-04-19 19:22 70.21517 -149.97406 1978 ft 143 kts 274°
2026-04-19 19:22 70.21570 -150.00342 1974 ft 143 kts 274°
2026-04-19 19:22 70.21628 -150.03272 1973 ft 143 kts 274°
2026-04-19 19:22 70.21687 -150.06209 1975 ft 143 kts 274°
2026-04-19 19:23 70.21744 -150.09147 1975 ft 143 kts 274°
2026-04-19 19:23 70.21798 -150.12076 1979 ft 143 kts 273°
2026-04-19 19:23 70.21851 -150.15011 1982 ft 143 kts 273°
2026-04-19 19:23 70.21900 -150.17943 1975 ft 143 kts 273°
2026-04-19 19:24 70.21949 -150.20841 1975 ft 143 kts 273°
2026-04-19 19:24 70.21976 -150.23779 1978 ft 143 kts 270°
2026-04-19 19:24 70.21961 -150.26719 1974 ft 143 kts 268°
2026-04-19 19:24 70.21915 -150.29651 1989 ft 143 kts 267°
2026-04-19 19:25 70.21854 -150.32558 1983 ft 143 kts 266°
2026-04-19 19:25 70.21791 -150.35492 1985 ft 143 kts 266°
2026-04-19 19:25 70.21737 -150.38439 1987 ft 143 kts 268°
2026-04-19 19:25 70.21696 -150.41351 1990 ft 143 kts 268°
2026-04-19 19:26 70.21665 -150.44299 1989 ft 143 kts 269°
2026-04-19 19:26 70.21641 -150.47242 1993 ft 143 kts 269°
2026-04-19 19:26 70.21618 -150.50182 2000 ft 142 kts 269°
2026-04-19 19:26 70.21594 -150.53070 1999 ft 143 kts 269°
2026-04-19 19:27 70.21567 -150.56002 1998 ft 143 kts 268°
2026-04-19 19:27 70.21534 -150.58943 1995 ft 143 kts 268°
2026-04-19 19:27 70.21497 -150.61882 1996 ft 143 kts 268°
2026-04-19 19:27 70.21458 -150.64819 1997 ft 143 kts 268°
2026-04-19 19:28 70.21419 -150.67733 1997 ft 143 kts 268°
2026-04-19 19:28 70.21380 -150.70671 1997 ft 143 kts 268°
2026-04-19 19:28 70.21341 -150.73602 2002 ft 142 kts 268°
2026-04-19 19:28 70.21305 -150.76516 1998 ft 142 kts 268°
2026-04-19 19:29 70.21269 -150.79424 1993 ft 141 kts 268°
2026-04-19 19:29 70.21229 -150.82307 1991 ft 140 kts 267°
2026-04-19 19:29 70.20919 -150.84966 2005 ft 140 kts 240°
2026-04-19 19:29 70.20435 -150.87459 1997 ft 140 kts 239°
2026-04-19 19:30 70.19947 -150.89937 1997 ft 140 kts 239°
2026-04-19 19:30 70.19458 -150.92414 1996 ft 140 kts 239°
2026-04-19 19:30 70.18964 -150.94897 2004 ft 140 kts 239°
2026-04-19 19:30 70.18470 -150.97373 2001 ft 140 kts 239°
2026-04-19 19:31 70.17978 -150.99839 1998 ft 140 kts 239°
2026-04-19 19:31 70.17483 -151.02307 1998 ft 140 kts 239°
2026-04-19 19:31 70.16992 -151.04752 2000 ft 140 kts 239°
2026-04-19 19:31 70.16497 -151.07220 1999 ft 140 kts 238°
2026-04-19 19:32 70.16166 -151.08853 1995 ft 140 kts 238°
2026-04-19 19:32 70.15668 -151.11312 2004 ft 139 kts 238°
2026-04-19 19:32 70.15007 -151.14557 1996 ft 139 kts 238°
2026-04-19 19:32 70.14509 -151.17006 1997 ft 140 kts 238°
2026-04-19 19:33 70.14172 -151.18662 1999 ft 140 kts 238°
2026-04-19 19:33 70.13675 -151.21084 1993 ft 140 kts 238°
2026-04-19 19:33 70.13173 -151.23533 2000 ft 140 kts 238°
2026-04-19 19:33 70.12669 -151.25984 1999 ft 140 kts 238°
2026-04-19 19:34 70.12165 -151.28426 2002 ft 140 kts 238°
2026-04-19 19:34 70.11659 -151.30874 1994 ft 140 kts 238°
2026-04-19 19:34 70.11153 -151.33321 1989 ft 140 kts 238°
2026-04-19 19:34 70.10647 -151.35761 1992 ft 140 kts 238°
2026-04-19 19:35 70.10142 -151.38172 1989 ft 140 kts 238°
2026-04-19 19:35 70.09632 -151.40606 1991 ft 140 kts 238°
2026-04-19 19:35 70.09122 -151.43041 1988 ft 140 kts 237°
2026-04-19 19:35 70.08609 -151.45476 1984 ft 140 kts 237°
2026-04-19 19:36 70.08102 -151.47881 1986 ft 140 kts 237°
2026-04-19 19:36 70.07621 -151.50397 1932 ft 143 kts 249°
2026-04-19 19:36 70.07677 -151.53305 1778 ft 148 kts 297°
2026-04-19 19:36 70.08461 -151.55041 1767 ft 142 kts 348°
2026-04-19 19:37 70.09404 -151.54698 1787 ft 137 kts 27°
2026-04-19 19:37 70.10208 -151.53316 1890 ft 129 kts 33°
2026-04-19 19:37 70.10965 -151.51856 1889 ft 133 kts 35°
2026-04-19 19:37 70.11810 -151.50773 1891 ft 135 kts 14°
2026-04-19 19:38 70.12732 -151.50568 1951 ft 133 kts 359°
2026-04-19 19:38 70.13666 -151.50751 1899 ft 135 kts 358°
2026-04-19 19:38 70.14571 -151.50097 1736 ft 140 kts 35°
2026-04-19 19:38 70.15162 -151.47959 1746 ft 131 kts 61°
2026-04-19 19:39 70.15542 -151.45617 1716 ft 128 kts 69°
2026-04-19 19:39 70.15806 -151.43156 1715 ft 122 kts 75°
2026-04-19 19:39 70.16039 -151.40763 1641 ft 123 kts 73°
2026-04-19 19:39 70.16249 -151.38393 1712 ft 117 kts 76°
2026-04-19 19:40 70.16517 -151.36111 1716 ft 119 kts 63°
2026-04-19 19:40 70.16907 -151.34000 1741 ft 116 kts 63°
2026-04-19 19:40 70.17244 -151.31808 1716 ft 117 kts 70°
2026-04-19 19:40 70.17487 -151.29579 1727 ft 115 kts 74°
2026-04-19 19:41 70.17710 -151.27291 1692 ft 116 kts 74°
2026-04-19 19:41 70.17938 -151.25010 1696 ft 115 kts 73°
2026-04-19 19:41 70.18191 -151.22756 1671 ft 116 kts 70°
2026-04-19 19:41 70.18503 -151.20589 1676 ft 110 kts 64°
2026-04-19 19:42 70.18791 -151.18647 1498 ft 105 kts 72°
2026-04-19 19:42 70.19000 -151.16611 1315 ft 101 kts 75°
2026-04-19 19:42 70.19208 -151.14623 1072 ft 101 kts 70°
2026-04-19 19:42 70.19480 -151.12714 854 ft 100 kts 66°
2026-04-19 19:43 70.19741 -151.10845 691 ft 98 kts 70°
2026-04-19 19:43 70.19943 -151.08940 553 ft 95 kts 73°
2026-04-19 19:43 70.20145 -151.07159 472 ft 90 kts 69°
2026-04-19 19:43 70.20377 -151.05463 354 ft 90 kts 68°
2026-04-19 19:44 70.20596 -151.03744 214 ft 88 kts 70°
2026-04-19 19:44 70.20796 -151.02118 107 ft 79 kts 69°
2026-04-19 19:44 70.20969 -151.00801 51 ft 57 kts 69°
2026-04-19 19:44 70.21072 -150.99963 45 ft 33 kts 69°
2026-04-19 19:45 70.21128 -150.99531 38 ft 17 kts 63°
2026-04-19 19:45 70.21202 -150.99468 39 ft 8 kts 342°
2026-04-19 19:45 70.21252 -150.99530 42 ft 9 kts 335°
2026-04-19 19:45 70.21315 -150.99596 43 ft 10 kts 345°
2026-04-19 19:46 70.21334 -150.99642 43 ft 5 kts 215°
2026-04-19 19:46 70.21317 -150.99653 43 ft 2 kts 205°
2026-04-19 19:46 70.21308 -150.99754 44 ft 6 kts 209°
2026-04-19 19:46 70.21263 -150.99786 41 ft 6 kts 223°
2026-04-19 19:47 70.21261 -150.99860 42 ft 2 kts 325°
2026-04-19 19:47 70.21279 -150.99856 42 ft 0 kts
2026-04-19 19:47 70.21280 -150.99856 42 ft 0 kts